sensor_id;sensor_type;location;lat;lon;timestamp;pressure;altitude;pressure_sealevel;temperature;humidity
8573;BME280;4324;42.012;24.872;2023-03-03T00:02:27;99216.59;;;6.97;98.79
8573;BME280;4324;42.012;24.872;2023-03-03T00:04:56;99197.38;;;6.87;99.08
8573;BME280;4324;42.012;24.872;2023-03-03T00:07:22;99197.09;;;6.90;98.60
8573;BME280;4324;42.012;24.872;2023-03-03T00:09:50;99209.16;;;7.02;98.94
8573;BME280;4324;42.012;24.872;2023-03-03T00:12:22;99192.63;;;7.00;98.92
8573;BME280;4324;42.012;24.872;2023-03-03T00:14:49;99198.03;;;7.08;98.88
8573;BME280;4324;42.012;24.872;2023-03-03T00:17:21;99189.19;;;7.09;98.79
8573;BME280;4324;42.012;24.872;2023-03-03T00:19:49;99185.72;;;7.09;98.79
8573;BME280;4324;42.012;24.872;2023-03-03T00:22:25;99172.97;;;7.04;98.83
8573;BME280;4324;42.012;24.872;2023-03-03T00:24:53;99172.13;;;7.03;98.92
8573;BME280;4324;42.012;24.872;2023-03-03T00:27:26;99146.94;;;6.91;99.03
8573;BME280;4324;42.012;24.872;2023-03-03T00:29:56;99157.72;;;7.08;99.18
8573;BME280;4324;42.012;24.872;2023-03-03T00:32:25;99152.88;;;7.03;98.88
8573;BME280;4324;42.012;24.872;2023-03-03T00:34:53;99166.16;;;7.11;98.77
8573;BME280;4324;42.012;24.872;2023-03-03T00:37:31;99152.06;;;7.12;98.69
8573;BME280;4324;42.012;24.872;2023-03-03T00:40:10;99144.16;;;7.12;98.87
8573;BME280;4324;42.012;24.872;2023-03-03T00:42:39;99150.78;;;7.16;98.91
8573;BME280;4324;42.012;24.872;2023-03-03T00:45:22;99156.06;;;7.16;98.79
8573;BME280;4324;42.012;24.872;2023-03-03T00:47:50;99152.59;;;7.16;98.77
8573;BME280;4324;42.012;24.872;2023-03-03T00:50:25;99135.16;;;7.05;98.82
8573;BME280;4324;42.012;24.872;2023-03-03T00:53:00;99136.53;;;7.09;98.93
8573;BME280;4324;42.012;24.872;2023-03-03T00:55:28;99133.63;;;7.12;99.16
8573;BME280;4324;42.012;24.872;2023-03-03T00:57:55;99131.94;;;7.11;98.90
8573;BME280;4324;42.012;24.872;2023-03-03T01:00:22;99105.38;;;6.95;98.59
8573;BME280;4324;42.012;24.872;2023-03-03T01:02:49;99125.28;;;7.07;98.70
8573;BME280;4324;42.012;24.872;2023-03-03T01:05:17;99083.47;;;6.85;98.52
8573;BME280;4324;42.012;24.872;2023-03-03T01:07:44;99127.38;;;7.13;98.95
8573;BME280;4324;42.012;24.872;2023-03-03T01:10:13;99125.28;;;7.17;98.70
8573;BME280;4324;42.012;24.872;2023-03-03T01:12:40;99105.38;;;7.05;98.70
8573;BME280;4324;42.012;24.872;2023-03-03T01:15:09;99118.75;;;7.11;98.71
8573;BME280;4324;42.012;24.872;2023-03-03T01:17:36;99113.25;;;7.05;98.55
8573;BME280;4324;42.012;24.872;2023-03-03T01:20:05;99127.38;;;7.13;98.62
8573;BME280;4324;42.012;24.872;2023-03-03T01:22:32;99123.78;;;7.05;98.58
8573;BME280;4324;42.012;24.872;2023-03-03T01:24:59;99129.31;;;7.11;98.61
8573;BME280;4324;42.012;24.872;2023-03-03T01:27:29;99130.84;;;7.14;98.57
8573;BME280;4324;42.012;24.872;2023-03-03T01:29:56;99115.75;;;7.06;98.53
8573;BME280;4324;42.012;24.872;2023-03-03T01:32:23;99133.59;;;7.22;98.47
8573;BME280;4324;42.012;24.872;2023-03-03T01:34:50;99118.38;;;7.16;98.24
8573;BME280;4324;42.012;24.872;2023-03-03T01:37:17;99130.81;;;7.23;98.31
8573;BME280;4324;42.012;24.872;2023-03-03T01:39:47;99129.16;;;7.22;98.18
8573;BME280;4324;42.012;24.872;2023-03-03T01:42:14;99113.38;;;7.13;98.23
8573;BME280;4324;42.012;24.872;2023-03-03T01:44:43;99013.16;;;6.48;98.18
8573;BME280;4324;42.012;24.872;2023-03-03T01:47:11;99121.84;;;7.16;98.33
8573;BME280;4324;42.012;24.872;2023-03-03T01:49:41;99125.97;;;7.19;98.29
8573;BME280;4324;42.012;24.872;2023-03-03T01:52:12;99105.88;;;7.08;98.06
8573;BME280;4324;42.012;24.872;2023-03-03T01:54:46;99119.88;;;7.18;98.01
8573;BME280;4324;42.012;24.872;2023-03-03T01:57:18;99108.25;;;7.11;97.92
8573;BME280;4324;42.012;24.872;2023-03-03T01:59:50;99123.88;;;7.22;97.89
8573;BME280;4324;42.012;24.872;2023-03-03T02:02:18;99117.94;;;7.20;97.94
8573;BME280;4324;42.012;24.872;2023-03-03T02:04:45;99121.25;;;7.22;98.28
8573;BME280;4324;42.012;24.872;2023-03-03T02:07:13;99106.41;;;7.21;98.39
8573;BME280;4324;42.012;24.872;2023-03-03T02:09:49;99110.03;;;7.20;98.21
8573;BME280;4324;42.012;24.872;2023-03-03T02:12:19;99106.03;;;7.16;98.15
8573;BME280;4324;42.012;24.872;2023-03-03T02:14:49;99111.84;;;7.20;98.00
8573;BME280;4324;42.012;24.872;2023-03-03T02:17:16;99110.03;;;7.20;98.21
8573;BME280;4324;42.012;24.872;2023-03-03T02:19:51;99106.41;;;7.21;98.36
8573;BME280;4324;42.012;24.872;2023-03-03T02:22:26;99099.63;;;7.19;98.06
8573;BME280;4324;42.012;24.872;2023-03-03T02:25:01;99103.63;;;7.23;98.01
8573;BME280;4324;42.012;24.872;2023-03-03T02:27:30;99106.16;;;7.24;98.06
8573;BME280;4324;42.012;24.872;2023-03-03T02:30:08;99102.13;;;7.20;98.06
8573;BME280;4324;42.012;24.872;2023-03-03T02:32:35;99083.72;;;7.11;98.12
8573;BME280;4324;42.012;24.872;2023-03-03T02:35:27;99106.16;;;7.24;98.06
8573;BME280;4324;42.012;24.872;2023-03-03T02:37:58;99099.50;;;7.20;98.36
8573;BME280;4324;42.012;24.872;2023-03-03T02:40:30;99095.34;;;7.18;98.24
8573;BME280;4324;42.012;24.872;2023-03-03T02:43:03;99101.97;;;7.22;97.91
8573;BME280;4324;42.012;24.872;2023-03-03T02:45:31;99106.16;;;7.24;98.13
8573;BME280;4324;42.012;24.872;2023-03-03T02:47:58;99106.16;;;7.24;98.05
8573;BME280;4324;42.012;24.872;2023-03-03T02:50:25;99103.13;;;7.19;97.85
8573;BME280;4324;42.012;24.872;2023-03-03T02:52:55;99107.94;;;7.24;97.92
8573;BME280;4324;42.012;24.872;2023-03-03T02:55:22;99111.25;;;7.26;97.96
8573;BME280;4324;42.012;24.872;2023-03-03T02:57:49;99105.03;;;7.27;97.93
8573;BME280;4324;42.012;24.872;2023-03-03T03:00:17;99103.22;;;7.27;98.05
8573;BME280;4324;42.012;24.872;2023-03-03T03:02:45;99104.19;;;7.26;97.97
8573;BME280;4324;42.012;24.872;2023-03-03T03:05:12;99106.00;;;7.26;98.07
8573;BME280;4324;42.012;24.872;2023-03-03T03:07:39;99096.44;;;7.25;98.14
8573;BME280;4324;42.012;24.872;2023-03-03T03:10:07;99099.91;;;7.25;98.17
8573;BME280;4324;42.012;24.872;2023-03-03T03:12:34;99060.59;;;7.05;98.23
8573;BME280;4324;42.012;24.872;2023-03-03T03:15:01;99097.25;;;7.25;98.25
8573;BME280;4324;42.012;24.872;2023-03-03T03:17:29;99087.00;;;7.22;98.31
8573;BME280;4324;42.012;24.872;2023-03-03T03:19:56;99077.06;;;7.16;97.98
8573;BME280;4324;42.012;24.872;2023-03-03T03:22:23;99088.25;;;7.28;97.93
8573;BME280;4324;42.012;24.872;2023-03-03T03:24:50;99090.59;;;7.31;98.15
8573;BME280;4324;42.012;24.872;2023-03-03T03:27:17;99088.81;;;7.32;98.15
8573;BME280;4324;42.012;24.872;2023-03-03T03:29:44;99079.81;;;7.24;98.02
8573;BME280;4324;42.012;24.872;2023-03-03T03:32:11;99086.28;;;7.30;97.92
8573;BME280;4324;42.012;24.872;2023-03-03T03:34:39;99087.28;;;7.29;98.06
8573;BME280;4324;42.012;24.872;2023-03-03T03:37:06;99074.53;;;7.24;97.99
8573;BME280;4324;42.012;24.872;2023-03-03T03:39:34;99088.09;;;7.30;98.04
8573;BME280;4324;42.012;24.872;2023-03-03T03:42:01;99087.28;;;7.29;98.11
8573;BME280;4324;42.012;24.872;2023-03-03T03:44:28;99058.75;;;7.15;98.08
8573;BME280;4324;42.012;24.872;2023-03-03T03:46:55;99072.19;;;7.21;97.85
8573;BME280;4324;42.012;24.872;2023-03-03T03:49:22;99072.19;;;7.21;98.08
8573;BME280;4324;42.012;24.872;2023-03-03T03:51:50;99094.19;;;7.30;97.89
8573;BME280;4324;42.012;24.872;2023-03-03T03:54:17;99083.81;;;7.28;97.97
8573;BME280;4324;42.012;24.872;2023-03-03T03:56:46;99092.25;;;7.32;97.82
8573;BME280;4324;42.012;24.872;2023-03-03T03:59:12;99066.53;;;7.16;97.92
8573;BME280;4324;42.012;24.872;2023-03-03T04:01:39;99063.06;;;7.16;98.20
8573;BME280;4324;42.012;24.872;2023-03-03T04:04:06;99091.72;;;7.28;97.97
8573;BME280;4324;42.012;24.872;2023-03-03T04:06:33;99078.16;;;7.23;97.95
8573;BME280;4324;42.012;24.872;2023-03-03T04:09:02;99079.69;;;7.16;97.94
8573;BME280;4324;42.012;24.872;2023-03-03T04:11:29;99084.25;;;7.24;97.98
8573;BME280;4324;42.012;24.872;2023-03-03T04:13:56;99075.25;;;7.17;97.71
8573;BME280;4324;42.012;24.872;2023-03-03T04:16:23;99084.09;;;7.25;97.78
8573;BME280;4324;42.012;24.872;2023-03-03T04:18:50;99062.09;;;7.17;97.62
8573;BME280;4324;42.012;24.872;2023-03-03T04:21:16;99052.00;;;7.12;97.83
8573;BME280;4324;42.012;24.872;2023-03-03T04:23:43;99065.94;;;7.22;97.75
8573;BME280;4324;42.012;24.872;2023-03-03T04:26:12;99077.72;;;7.28;97.78
8573;BME280;4324;42.012;24.872;2023-03-03T04:28:38;99078.81;;;7.25;97.80
8573;BME280;4324;42.012;24.872;2023-03-03T04:31:05;99072.03;;;7.23;97.70
8573;BME280;4324;42.012;24.872;2023-03-03T04:33:32;99055.72;;;7.19;97.69
8573;BME280;4324;42.012;24.872;2023-03-03T04:35:59;99057.66;;;7.17;97.58
8573;BME280;4324;42.012;24.872;2023-03-03T04:38:26;99073.28;;;7.28;97.86
8573;BME280;4324;42.012;24.872;2023-03-03T04:40:55;99074.38;;;7.26;97.57
8573;BME280;4324;42.012;24.872;2023-03-03T04:43:23;99076.19;;;7.25;97.56
8573;BME280;4324;42.012;24.872;2023-03-03T04:45:50;99077.19;;;7.24;97.49
8573;BME280;4324;42.012;24.872;2023-03-03T04:48:17;99085.63;;;7.28;97.42
8573;BME280;4324;42.012;24.872;2023-03-03T04:50:43;99078.53;;;7.28;97.51
8573;BME280;4324;42.012;24.872;2023-03-03T04:53:10;99075.91;;;7.28;97.61
8573;BME280;4324;42.012;24.872;2023-03-03T04:55:38;99075.91;;;7.28;97.72
8573;BME280;4324;42.012;24.872;2023-03-03T04:58:04;99080.19;;;7.30;97.62
8573;BME280;4324;42.012;24.872;2023-03-03T05:00:33;99058.63;;;7.16;97.51
8573;BME280;4324;42.012;24.872;2023-03-03T05:03:00;99082.84;;;7.30;97.74
8573;BME280;4324;42.012;24.872;2023-03-03T05:05:27;98969.41;;;6.57;97.59
8573;BME280;4324;42.012;24.872;2023-03-03T05:07:54;99076.34;;;7.24;97.83
8573;BME280;4324;42.012;24.872;2023-03-03T05:10:20;99093.53;;;7.28;97.52
8573;BME280;4324;42.012;24.872;2023-03-03T05:12:47;99089.25;;;7.27;97.61
8573;BME280;4324;42.012;24.872;2023-03-03T05:15:14;99065.69;;;7.16;97.22
8573;BME280;4324;42.012;24.872;2023-03-03T05:17:43;99085.06;;;7.24;97.43
8573;BME280;4324;42.012;24.872;2023-03-03T05:20:12;99076.09;;;7.17;97.30
8573;BME280;4324;42.012;24.872;2023-03-03T05:22:39;99088.97;;;7.20;97.41
8573;BME280;4324;42.012;24.872;2023-03-03T05:25:07;99091.72;;;7.19;97.86
8573;BME280;4324;42.012;24.872;2023-03-03T05:27:35;99092.03;;;7.16;97.60
8573;BME280;4324;42.012;24.872;2023-03-03T05:30:03;99082.88;;;7.10;97.69
8573;BME280;4324;42.012;24.872;2023-03-03T05:32:30;99091.47;;;7.12;97.77
8573;BME280;4324;42.012;24.872;2023-03-03T05:34:58;99087.59;;;7.07;97.70
8573;BME280;4324;42.012;24.872;2023-03-03T05:37:25;99086.78;;;7.06;97.96
8573;BME280;4324;42.012;24.872;2023-03-03T05:39:52;99059.22;;;6.91;97.79
8573;BME280;4324;42.012;24.872;2023-03-03T05:42:19;99091.47;;;7.12;98.14
8573;BME280;4324;42.012;24.872;2023-03-03T05:44:46;99093.81;;;7.15;98.08
8573;BME280;4324;42.012;24.872;2023-03-03T05:47:13;99095.78;;;7.13;97.92
8573;BME280;4324;42.012;24.872;2023-03-03T05:49:40;99080.97;;;7.02;98.06
8573;BME280;4324;42.012;24.872;2023-03-03T05:52:08;99093.41;;;7.10;98.31
8573;BME280;4324;42.012;24.872;2023-03-03T05:54:35;99097.84;;;7.10;98.33
8573;BME280;4324;42.012;24.872;2023-03-03T05:57:02;99087.88;;;7.03;98.45
8573;BME280;4324;42.012;24.872;2023-03-03T05:59:29;99092.72;;;7.08;98.40
8573;BME280;4324;42.012;24.872;2023-03-03T06:01:56;99079.31;;;7.01;98.36
8573;BME280;4324;42.012;24.872;2023-03-03T06:04:24;99098.13;;;7.16;98.24
8573;BME280;4324;42.012;24.872;2023-03-03T06:06:50;99086.50;;;7.09;98.10
8573;BME280;4324;42.012;24.872;2023-03-03T06:09:19;99102.53;;;7.25;98.26
8573;BME280;4324;42.012;24.872;2023-03-03T06:11:46;99083.97;;;7.17;98.17
8573;BME280;4324;42.012;24.872;2023-03-03T06:14:12;99098.06;;;7.36;98.06
8573;BME280;4324;42.012;24.872;2023-03-03T06:16:39;99101.69;;;7.35;97.99
8573;BME280;4324;42.012;24.872;2023-03-03T06:19:06;99101.91;;;7.41;98.05
8573;BME280;4324;42.012;24.872;2023-03-03T06:21:33;99111.34;;;7.44;98.02
8573;BME280;4324;42.012;24.872;2023-03-03T06:24:00;99069.28;;;7.15;97.92
8573;BME280;4324;42.012;24.872;2023-03-03T06:26:30;99099.47;;;7.30;98.14
8573;BME280;4324;42.012;24.872;2023-03-03T06:28:58;99108.63;;;7.26;98.18
8573;BME280;4324;42.012;24.872;2023-03-03T06:31:25;99107.78;;;7.25;98.04
8573;BME280;4324;42.012;24.872;2023-03-03T06:33:52;99108.38;;;7.19;97.99
8573;BME280;4324;42.012;24.872;2023-03-03T06:36:20;99105.59;;;7.11;97.97
8573;BME280;4324;42.012;24.872;2023-03-03T06:38:47;99113.09;;;7.16;97.97
8573;BME280;4324;42.012;24.872;2023-03-03T06:41:14;99110.88;;;7.11;98.08
8573;BME280;4324;42.012;24.872;2023-03-03T06:43:43;99104.50;;;7.04;98.30
8573;BME280;4324;42.012;24.872;2023-03-03T06:46:09;99117.81;;;7.12;98.39
8573;BME280;4324;42.012;24.872;2023-03-03T06:48:36;99115.19;;;7.12;98.40
8573;BME280;4324;42.012;24.872;2023-03-03T06:51:17;99090.13;;;6.98;98.45
8573;BME280;4324;42.012;24.872;2023-03-03T06:53:47;99086.66;;;6.98;98.36
8573;BME280;4324;42.012;24.872;2023-03-03T06:56:14;99130.41;;;7.18;98.34
8573;BME280;4324;42.012;24.872;2023-03-03T06:58:42;99045.81;;;6.74;98.05
8573;BME280;4324;42.012;24.872;2023-03-03T07:01:14;99123.88;;;7.22;98.11
8573;BME280;4324;42.012;24.872;2023-03-03T07:03:41;99120.69;;;7.28;98.35
8573;BME280;4324;42.012;24.872;2023-03-03T07:06:17;99121.38;;;7.31;98.32
8573;BME280;4324;42.012;24.872;2023-03-03T07:08:46;99101.16;;;7.21;98.48
8573;BME280;4324;42.012;24.872;2023-03-03T07:11:17;99109.03;;;7.31;98.37
8573;BME280;4324;42.012;24.872;2023-03-03T07:13:48;99123.16;;;7.40;98.33
8573;BME280;4324;42.012;24.872;2023-03-03T07:16:17;99117.19;;;7.38;98.45
8573;BME280;4324;42.012;24.872;2023-03-03T07:18:49;99119.81;;;7.47;98.37
8573;BME280;4324;42.012;24.872;2023-03-03T07:21:18;99124.63;;;7.52;98.52
8573;BME280;4324;42.012;24.872;2023-03-03T07:23:47;99124.63;;;7.52;98.30
8573;BME280;4324;42.012;24.872;2023-03-03T07:26:17;99122.69;;;7.54;98.23
8573;BME280;4324;42.012;24.872;2023-03-03T07:28:50;99109.09;;;7.49;98.41
8573;BME280;4324;42.012;24.872;2023-03-03T07:31:30;99119.78;;;7.57;98.26
8573;BME280;4324;42.012;24.872;2023-03-03T07:33:59;99115.47;;;7.56;98.28
8573;BME280;4324;42.012;24.872;2023-03-03T07:36:29;99110.19;;;7.56;98.40
8573;BME280;4324;42.012;24.872;2023-03-03T07:38:58;99119.88;;;7.65;98.25
8573;BME280;4324;42.012;24.872;2023-03-03T07:41:27;99119.59;;;7.68;98.24
8573;BME280;4324;42.012;24.872;2023-03-03T07:44:03;99121.63;;;7.74;98.27
8573;BME280;4324;42.012;24.872;2023-03-03T07:46:35;99112.09;;;7.73;98.14
8573;BME280;4324;42.012;24.872;2023-03-03T07:49:21;99110.00;;;7.77;98.00
8573;BME280;4324;42.012;24.872;2023-03-03T07:51:52;99106.91;;;7.82;97.75
8573;BME280;4324;42.012;24.872;2023-03-03T07:54:32;99111.31;;;7.91;97.80
8573;BME280;4324;42.012;24.872;2023-03-03T07:57:10;99087.88;;;7.88;97.84
8573;BME280;4324;42.012;24.872;2023-03-03T07:59:44;99117.41;;;8.19;98.07
8573;BME280;4324;42.012;24.872;2023-03-03T08:02:32;99101.81;;;8.25;98.16
8573;BME280;4324;42.012;24.872;2023-03-03T08:05:00;99088.84;;;8.42;97.92
8573;BME280;4324;42.012;24.872;2023-03-03T08:07:29;99100.53;;;8.57;97.75
8573;BME280;4324;42.012;24.872;2023-03-03T08:09:58;99073.06;;;8.50;97.09
8573;BME280;4324;42.012;24.872;2023-03-03T08:12:38;99084.41;;;8.60;97.00
8573;BME280;4324;42.012;24.872;2023-03-03T08:15:20;99091.31;;;8.61;96.97
8573;BME280;4324;42.012;24.872;2023-03-03T08:17:48;99079.41;;;8.57;97.34
8573;BME280;4324;42.012;24.872;2023-03-03T08:20:42;99081.38;;;8.55;97.24
8573;BME280;4324;42.012;24.872;2023-03-03T08:23:10;99086.03;;;8.61;97.43
8573;BME280;4324;42.012;24.872;2023-03-03T08:25:38;99081.97;;;8.67;97.49
8573;BME280;4324;42.012;24.872;2023-03-03T08:28:07;99077.50;;;8.67;97.43
8573;BME280;4324;42.012;24.872;2023-03-03T08:30:35;99066.94;;;8.67;97.35
8573;BME280;4324;42.012;24.872;2023-03-03T08:33:03;99048.69;;;8.56;97.31
8573;BME280;4324;42.012;24.872;2023-03-03T08:35:30;99069.59;;;8.67;97.21
8573;BME280;4324;42.012;24.872;2023-03-03T08:37:57;99051.44;;;8.46;97.11
8573;BME280;4324;42.012;24.872;2023-03-03T08:40:24;99043.72;;;8.35;97.34
8573;BME280;4324;42.012;24.872;2023-03-03T08:42:51;99037.22;;;8.30;97.64
8573;BME280;4324;42.012;24.872;2023-03-03T08:45:19;99055.56;;;8.31;97.77
8573;BME280;4324;42.012;24.872;2023-03-03T08:47:47;99066.25;;;8.30;97.63
8573;BME280;4324;42.012;24.872;2023-03-03T08:50:14;99060.00;;;8.13;97.76
8573;BME280;4324;42.012;24.872;2023-03-03T08:52:41;99063.03;;;8.08;97.71
8573;BME280;4324;42.012;24.872;2023-03-03T08:55:09;99048.19;;;7.89;97.58
8573;BME280;4324;42.012;24.872;2023-03-03T08:57:36;99042.38;;;7.86;98.05
8573;BME280;4324;42.012;24.872;2023-03-03T09:00:05;99066.50;;;7.91;97.93
8573;BME280;4324;42.012;24.872;2023-03-03T09:02:32;99078.66;;;8.02;97.98
8573;BME280;4324;42.012;24.872;2023-03-03T09:05:00;99065.59;;;8.00;97.89
8573;BME280;4324;42.012;24.872;2023-03-03T09:07:27;99074.88;;;8.04;97.83
8573;BME280;4324;42.012;24.872;2023-03-03T09:09:54;99060.31;;;8.00;97.98
8573;BME280;4324;42.012;24.872;2023-03-03T09:12:26;99067.75;;;8.14;98.09
8573;BME280;4324;42.012;24.872;2023-03-03T09:14:55;99069.16;;;8.27;97.94
8573;BME280;4324;42.012;24.872;2023-03-03T09:17:26;99043.50;;;8.29;97.96
8573;BME280;4324;42.012;24.872;2023-03-03T09:19:55;99053.16;;;8.56;97.86
8573;BME280;4324;42.012;24.872;2023-03-03T09:22:26;99054.13;;;8.72;97.45
8573;BME280;4324;42.012;24.872;2023-03-03T09:24:57;99042.59;;;8.73;96.98
8573;BME280;4324;42.012;24.872;2023-03-03T09:27:27;99027.97;;;8.61;96.35
8573;BME280;4324;42.012;24.872;2023-03-03T09:29:56;99038.66;;;8.78;96.56
8573;BME280;4324;42.012;24.872;2023-03-03T09:32:33;99024.47;;;8.79;96.71
8573;BME280;4324;42.012;24.872;2023-03-03T09:35:32;99032.03;;;9.00;96.46
8573;BME280;4324;42.012;24.872;2023-03-03T09:38:11;99038.72;;;9.12;96.11
8573;BME280;4324;42.012;24.872;2023-03-03T09:40:50;99043.72;;;9.23;96.63
8573;BME280;4324;42.012;24.872;2023-03-03T09:43:26;99017.66;;;9.20;96.59
8573;BME280;4324;42.012;24.872;2023-03-03T09:46:03;99040.72;;;9.44;96.60
8573;BME280;4324;42.012;24.872;2023-03-03T09:48:43;99050.03;;;9.56;96.63
8573;BME280;4324;42.012;24.872;2023-03-03T09:51:33;99041.81;;;9.67;96.35
8573;BME280;4324;42.012;24.872;2023-03-03T09:54:17;99042.19;;;9.81;96.10
8573;BME280;4324;42.012;24.872;2023-03-03T09:56:50;99036.78;;;9.90;96.07
8573;BME280;4324;42.012;24.872;2023-03-03T09:59:32;99022.41;;;9.93;95.74
8573;BME280;4324;42.012;24.872;2023-03-03T10:02:23;99031.22;;;10.10;96.09
8573;BME280;4324;42.012;24.872;2023-03-03T10:05:20;99036.56;;;10.26;96.04
8573;BME280;4324;42.012;24.872;2023-03-03T10:08:05;99040.88;;;10.35;95.63
8573;BME280;4324;42.012;24.872;2023-03-03T10:10:46;99037.75;;;10.40;95.44
8573;BME280;4324;42.012;24.872;2023-03-03T10:13:29;99036.75;;;10.49;95.58
8573;BME280;4324;42.012;24.872;2023-03-03T10:16:26;99037.41;;;10.59;95.99
8573;BME280;4324;42.012;24.872;2023-03-03T10:19:00;99027.31;;;10.63;95.99
8573;BME280;4324;42.012;24.872;2023-03-03T10:21:34;99005.31;;;10.62;95.92
8573;BME280;4324;42.012;24.872;2023-03-03T10:24:08;99025.50;;;10.88;95.63
8573;BME280;4324;42.012;24.872;2023-03-03T10:26:50;99016.03;;;10.85;95.05
8573;BME280;4324;42.012;24.872;2023-03-03T10:29:30;99009.94;;;10.85;95.17
8573;BME280;4324;42.012;24.872;2023-03-03T10:32:22;99018.19;;;10.98;95.56
8573;BME280;4324;42.012;24.872;2023-03-03T10:35:02;99013.22;;;11.03;95.45
8573;BME280;4324;42.012;24.872;2023-03-03T10:37:40;99007.59;;;11.06;95.25
8573;BME280;4324;42.012;24.872;2023-03-03T10:40:17;99009.06;;;11.17;95.14
8573;BME280;4324;42.012;24.872;2023-03-03T10:43:23;98998.28;;;11.10;94.50
8573;BME280;4324;42.012;24.872;2023-03-03T10:46:25;98997.63;;;11.17;94.66
8573;BME280;4324;42.012;24.872;2023-03-03T10:51:54;98971.66;;;10.96;93.87
8573;BME280;4324;42.012;24.872;2023-03-03T10:54:33;98997.97;;;11.13;93.72
8573;BME280;4324;42.012;24.872;2023-03-03T10:57:10;98986.38;;;11.06;93.07
8573;BME280;4324;42.012;24.872;2023-03-03T10:59:52;98966.56;;;10.94;93.14
8573;BME280;4324;42.012;24.872;2023-03-03T11:02:27;98984.03;;;11.11;93.17
8573;BME280;4324;42.012;24.872;2023-03-03T11:05:21;98979.75;;;11.10;93.06
8573;BME280;4324;42.012;24.872;2023-03-03T11:07:56;98965.84;;;11.00;92.49
8573;BME280;4324;42.012;24.872;2023-03-03T11:10:38;98965.91;;;10.84;92.34
8573;BME280;4324;42.012;24.872;2023-03-03T11:13:13;98972.19;;;10.75;92.00
8573;BME280;4324;42.012;24.872;2023-03-03T11:15:53;98935.34;;;10.32;91.90
8573;BME280;4324;42.012;24.872;2023-03-03T11:18:32;98861.56;;;9.72;92.17
8573;BME280;4324;42.012;24.872;2023-03-03T11:21:14;98975.22;;;10.47;92.30
8573;BME280;4324;42.012;24.872;2023-03-03T11:24:09;98971.88;;;10.61;92.14
8573;BME280;4324;42.012;24.872;2023-03-03T11:26:52;98860.41;;;10.07;91.86
8573;BME280;4324;42.012;24.872;2023-03-03T11:29:47;98939.94;;;10.55;90.89
8573;BME280;4324;42.012;24.872;2023-03-03T11:32:25;98955.84;;;10.47;90.57
8573;BME280;4324;42.012;24.872;2023-03-03T11:35:05;98949.06;;;10.36;90.59
8573;BME280;4324;42.012;24.872;2023-03-03T11:37:43;98960.66;;;10.35;90.94
8573;BME280;4324;42.012;24.872;2023-03-03T11:40:16;98954.38;;;10.28;90.79
8573;BME280;4324;42.012;24.872;2023-03-03T11:42:53;98957.81;;;10.20;90.74
8573;BME280;4324;42.012;24.872;2023-03-03T11:45:29;98947.69;;;10.15;91.00
8573;BME280;4324;42.012;24.872;2023-03-03T11:48:05;98946.53;;;10.18;91.08
8573;BME280;4324;42.012;24.872;2023-03-03T11:50:37;98944.94;;;10.25;90.82
8573;BME280;4324;42.012;24.872;2023-03-03T11:53:20;98933.16;;;10.03;90.68
8573;BME280;4324;42.012;24.872;2023-03-03T11:55:56;98920.22;;;9.76;90.77
8573;BME280;4324;42.012;24.872;2023-03-03T11:58:28;98936.56;;;9.71;91.36
8573;BME280;4324;42.012;24.872;2023-03-03T12:01:03;98823.75;;;9.05;91.34
8573;BME280;4324;42.012;24.872;2023-03-03T12:03:39;98927.16;;;9.68;91.72
8573;BME280;4324;42.012;24.872;2023-03-03T12:06:16;98920.84;;;9.61;91.66
8573;BME280;4324;42.012;24.872;2023-03-03T12:09:10;98915.06;;;9.58;91.81
8573;BME280;4324;42.012;24.872;2023-03-03T12:11:46;98922.31;;;9.56;91.78
8573;BME280;4324;42.012;24.872;2023-03-03T12:14:23;98931.25;;;9.55;92.00
8573;BME280;4324;42.012;24.872;2023-03-03T12:16:55;98929.09;;;9.58;92.29
8573;BME280;4324;42.012;24.872;2023-03-03T12:19:34;98916.38;;;9.62;92.30
8573;BME280;4324;42.012;24.872;2023-03-03T12:25:28;98907.66;;;9.86;91.68
8573;BME280;4324;42.012;24.872;2023-03-03T12:28:03;98911.66;;;10.06;91.68
8573;BME280;4324;42.012;24.872;2023-03-03T12:31:00;98918.59;;;10.15;91.04
8573;BME280;4324;42.012;24.872;2023-03-03T12:33:50;98916.78;;;10.16;90.84
8573;BME280;4324;42.012;24.872;2023-03-03T12:36:39;98899.91;;;10.01;90.94
8573;BME280;4324;42.012;24.872;2023-03-03T12:39:23;98917.63;;;10.16;91.34
8573;BME280;4324;42.012;24.872;2023-03-03T12:42:00;98920.94;;;10.27;91.02
8573;BME280;4324;42.012;24.872;2023-03-03T12:44:35;98912.31;;;10.16;90.71
8573;BME280;4324;42.012;24.872;2023-03-03T12:47:09;98913.28;;;10.15;90.70
8573;BME280;4324;42.012;24.872;2023-03-03T12:49:48;98913.31;;;10.07;90.65
8573;BME280;4324;42.012;24.872;2023-03-03T12:52:32;98832.94;;;9.51;90.51
8573;BME280;4324;42.012;24.872;2023-03-03T12:55:10;98911.97;;;10.03;90.91
8573;BME280;4324;42.012;24.872;2023-03-03T12:57:48;98886.84;;;9.83;90.86
8573;BME280;4324;42.012;24.872;2023-03-03T13:00:27;98905.69;;;9.88;91.14
8573;BME280;4324;42.012;24.872;2023-03-03T13:03:08;98911.97;;;9.87;91.21
8573;BME280;4324;42.012;24.872;2023-03-03T13:05:48;98904.50;;;9.74;90.88
8573;BME280;4324;42.012;24.872;2023-03-03T13:08:28;98913.06;;;9.60;91.18
8573;BME280;4324;42.012;24.872;2023-03-03T13:11:04;98904.94;;;9.45;91.23
8573;BME280;4324;42.012;24.872;2023-03-03T13:13:39;98910.88;;;9.39;91.52
8573;BME280;4324;42.012;24.872;2023-03-03T13:16:10;98909.88;;;9.32;91.46
8573;BME280;4324;42.012;24.872;2023-03-03T13:18:50;98904.06;;;9.20;91.29
8573;BME280;4324;42.012;24.872;2023-03-03T13:21:23;98897.75;;;9.13;91.52
8573;BME280;4324;42.012;24.872;2023-03-03T13:23:57;98903.88;;;9.21;91.63
8573;BME280;4324;42.012;24.872;2023-03-03T13:26:29;98907.84;;;9.26;91.68
8573;BME280;4324;42.012;24.872;2023-03-03T13:29:04;98892.28;;;9.14;91.57
8573;BME280;4324;42.012;24.872;2023-03-03T13:31:39;98896.75;;;9.14;91.98
8573;BME280;4324;42.012;24.872;2023-03-03T13:34:07;98897.88;;;9.11;91.78
8573;BME280;4324;42.012;24.872;2023-03-03T13:36:42;98908.97;;;9.15;91.82
8573;BME280;4324;42.012;24.872;2023-03-03T13:39:17;98902.53;;;9.17;91.98
8573;BME280;4324;42.012;24.872;2023-03-03T13:41:50;98905.53;;;9.23;91.86
8573;BME280;4324;42.012;24.872;2023-03-03T13:44:24;98901.56;;;9.18;91.93
8573;BME280;4324;42.012;24.872;2023-03-03T13:47:02;98909.47;;;9.18;91.89
8573;BME280;4324;42.012;24.872;2023-03-03T13:49:58;98906.84;;;9.18;92.04
8573;BME280;4324;42.012;24.872;2023-03-03T13:52:28;98894.91;;;9.06;91.82
8573;BME280;4324;42.012;24.872;2023-03-03T13:55:11;98899.88;;;9.09;91.90